CheckWX is a tool to help pilots better visualize weather data.  It is not intended as a substitute for an official pre-flight weather briefing.

06:06:04 UTC

KASH METAR
Boire Field Airport
Nashua, New Hampshire, USA
Current

10 mins ago

KASH 280556Z AUTO 26009KT 10SM SCT050 BKN065 M02/M11 A2964 RMK AO2 SLP045 60000 T10221106 10000 21022 53016
Observed
Feb-28 @ 05:56 UTC
Wind
  • 260° at 9 KTS
Visibility
10 SM
Flight Rules
VFR
Cloud Levels
  • Scattered at 5,000' AGL
  • Broken at 6,500' AGL
Temperature
-2°C / 28°F
Dewpoint
-11°C / 12°F
Humidity
51%
Altimeter
29.64" Hg
Pressure
1003.72 hPa
Previous

1 hour ago

KASH 280456Z AUTO 27014G22KT 10SM CLR M02/M13 A2962 RMK AO2 PK WND 26026/0359 SLP037 T10171128 401001017
Observed
Feb-28 @ 04:56 UTC
Wind
  • 270° at 14 KTS
  • Gusting to 22 KTS
Visibility
10 SM
Flight Rules
VFR
Cloud Levels
  • Clear skies
Temperature
-2°C / 28°F
Dewpoint
-13°C / 9°F
Humidity
43%
Altimeter
29.62" Hg
Pressure
1003.02 hPa
Previous

2 hours ago

KASH 280356Z AUTO 27013G20KT 240V330 10SM FEW055 M02/M12 A2961 RMK AO2 SNB19E29 SLP034 P0000 T10171122
Observed
Feb-28 @ 03:56 UTC
Wind
  • 270° at 13 KTS
  • Gusting to 20 KTS
Visibility
10 SM
Flight Rules
VFR
Cloud Levels
  • Few at 5,500' AGL
Temperature
-2°C / 28°F
Dewpoint
-12°C / 10°F
Humidity
47%
Altimeter
29.61" Hg
Pressure
1002.72 hPa
Current Rain
0.01"